CCA4004 ZUNZ-ZUUU
Flight info
| Callsign | CCA4004 |
|---|---|
| Flight time | N/A |
| Altitude | 35100 |
| Route | GOMON W9 LADUP |
| Aircraft | A320/M-SDE3FGHIRWY/LB1 |
Departure
| Time | 2026-04-17 15:25 |
|---|---|
| Airport | Nyingchi Mainling Airport (ZUNZ) |
Arrival
| Time | N/A |
|---|---|
| Airport | Chengdu Shuangliu International Airport (ZUUU) |
| Time | Latitude | Longitude | Altitude | Speed | Heading |
|---|---|---|---|---|---|
| 2026-04-17 14:55 | 29.30764 | 94.33531 | 9658 ft | 0 kts | 324° |
| 2026-04-17 15:12 | 29.30757 | 94.33537 | 9660 ft | 2 kts | 324° |
| 2026-04-17 15:12 | 29.30743 | 94.33547 | 9662 ft | 2 kts | 342° |
| 2026-04-17 15:12 | 29.30728 | 94.33551 | 9664 ft | 2 kts | 8° |
| 2026-04-17 15:13 | 29.30713 | 94.33544 | 9662 ft | 2 kts | 59° |
| 2026-04-17 15:13 | 29.30710 | 94.33539 | 9663 ft | 0 kts | 57° |
| 2026-04-17 15:19 | 29.30711 | 94.33541 | 9663 ft | 1 kts | 56° |
| 2026-04-17 15:19 | 29.30721 | 94.33557 | 9664 ft | 4 kts | 54° |
| 2026-04-17 15:19 | 29.30740 | 94.33587 | 9663 ft | 6 kts | 54° |
| 2026-04-17 15:19 | 29.30769 | 94.33633 | 9660 ft | 8 kts | 55° |
| 2026-04-17 15:20 | 29.30797 | 94.33685 | 9662 ft | 8 kts | 68° |
| 2026-04-17 15:20 | 29.30785 | 94.33726 | 9663 ft | 4 kts | 139° |
| 2026-04-17 15:20 | 29.30774 | 94.33735 | 9662 ft | 2 kts | 144° |
| 2026-04-17 15:20 | 29.30760 | 94.33748 | 9662 ft | 3 kts | 137° |
| 2026-04-17 15:21 | 29.30743 | 94.33775 | 9667 ft | 5 kts | 103° |
| 2026-04-17 15:21 | 29.30762 | 94.33825 | 9666 ft | 10 kts | 52° |
| 2026-04-17 15:21 | 29.30817 | 94.33914 | 9670 ft | 17 kts | 54° |
| 2026-04-17 15:21 | 29.30891 | 94.34034 | 9671 ft | 19 kts | 54° |
| 2026-04-17 15:22 | 29.30970 | 94.34160 | 9673 ft | 20 kts | 54° |
| 2026-04-17 15:22 | 29.31054 | 94.34298 | 9671 ft | 22 kts | 55° |
| 2026-04-17 15:22 | 29.31145 | 94.34448 | 9670 ft | 24 kts | 54° |
| 2026-04-17 15:22 | 29.31237 | 94.34594 | 9674 ft | 17 kts | 54° |
| 2026-04-17 15:23 | 29.31239 | 94.34665 | 9670 ft | 2 kts | 138° |
| 2026-04-17 15:23 | 29.31238 | 94.34665 | 9670 ft | 0 kts | 138° |
| 2026-04-17 15:23 | 29.31234 | 94.34669 | 9670 ft | 3 kts | 139° |
| 2026-04-17 15:23 | 29.31202 | 94.34697 | 9671 ft | 8 kts | 143° |
| 2026-04-17 15:24 | 29.31142 | 94.34730 | 9670 ft | 11 kts | 177° |
| 2026-04-17 15:24 | 29.31102 | 94.34691 | 9674 ft | 0 kts | 232° |
| 2026-04-17 15:24 | 29.30971 | 94.34480 | 9675 ft | 70 kts | 234° |
| 2026-04-17 15:25 | 29.30550 | 94.33807 | 9676 ft | 136 kts | 234° |
| 2026-04-17 15:25 | 29.29884 | 94.32744 | 9661 ft | 191 kts | 234° |
| 2026-04-17 15:25 | 29.29102 | 94.31491 | 10332 ft | 195 kts | 234° |
| 2026-04-17 15:25 | 29.28218 | 94.30312 | 11115 ft | 192 kts | 220° |
| 2026-04-17 15:26 | 29.27106 | 94.29404 | 11395 ft | 206 kts | 216° |
| 2026-04-17 15:26 | 29.26006 | 94.28210 | 11534 ft | 227 kts | 233° |
| 2026-04-17 15:26 | 29.25170 | 94.26596 | 11741 ft | 244 kts | 241° |
| 2026-04-17 15:26 | 29.24329 | 94.24824 | 11984 ft | 262 kts | 241° |
| 2026-04-17 15:27 | 29.23436 | 94.22955 | 12599 ft | 270 kts | 241° |
| 2026-04-17 15:27 | 29.22427 | 94.21127 | 13235 ft | 274 kts | 230° |
| 2026-04-17 15:27 | 29.21105 | 94.19540 | 13814 ft | 276 kts | 227° |
| 2026-04-17 15:27 | 29.19980 | 94.17760 | 14452 ft | 278 kts | 242° |
| 2026-04-17 15:28 | 29.19303 | 94.15680 | 15055 ft | 281 kts | 258° |
| 2026-04-17 15:28 | 29.19149 | 94.13447 | 15648 ft | 284 kts | 274° |
| 2026-04-17 15:28 | 29.19500 | 94.11214 | 16231 ft | 287 kts | 282° |
| 2026-04-17 15:28 | 29.19873 | 94.08982 | 16825 ft | 289 kts | 278° |
| 2026-04-17 15:29 | 29.20083 | 94.06666 | 17420 ft | 292 kts | 272° |
| 2026-04-17 15:29 | 29.20111 | 94.04335 | 18014 ft | 294 kts | 268° |
| 2026-04-17 15:29 | 29.20034 | 94.01988 | 18588 ft | 297 kts | 267° |
| 2026-04-17 15:29 | 29.19958 | 93.99618 | 19122 ft | 298 kts | 268° |
| 2026-04-17 15:30 | 29.19820 | 93.97246 | 19669 ft | 299 kts | 261° |
| 2026-04-17 15:30 | 29.19287 | 93.94942 | 20198 ft | 301 kts | 249° |
| 2026-04-17 15:30 | 29.18338 | 93.92802 | 20722 ft | 304 kts | 237° |
| 2026-04-17 15:30 | 29.17007 | 93.90919 | 21257 ft | 307 kts | 226° |
| 2026-04-17 15:31 | 29.15379 | 93.89319 | 21754 ft | 310 kts | 224° |
| 2026-04-17 15:31 | 29.13898 | 93.87550 | 22240 ft | 309 kts | 235° |
| 2026-04-17 15:31 | 29.12763 | 93.85470 | 22740 ft | 308 kts | 247° |
| 2026-04-17 15:31 | 29.12028 | 93.83178 | 23274 ft | 307 kts | 259° |
| 2026-04-17 15:32 | 29.11726 | 93.80766 | 23777 ft | 306 kts | 270° |
| 2026-04-17 15:32 | 29.11855 | 93.78343 | 24208 ft | 305 kts | 281° |
| 2026-04-17 15:32 | 29.12371 | 93.75994 | 24650 ft | 305 kts | 287° |
| 2026-04-17 15:32 | 29.12964 | 93.73657 | 25104 ft | 306 kts | 287° |
| 2026-04-17 15:33 | 29.13555 | 93.71309 | 25542 ft | 307 kts | 287° |
| 2026-04-17 15:33 | 29.14143 | 93.68957 | 25971 ft | 308 kts | 286° |